Wetterdaten: aktuell Freitag, 19.10.2018 02:50
Datum Zeit Temp. A. Temp. A. min Feuchte A. Luftdruck Regen Wind Richtung Richtung Sonnenschein Solar Taupunkt Windchill Windben
19.10.2018 02:50 9,7 C 9,7 C 90 % 1028,5 hPa 0,0 l/m 0,4 km/h (0 Bft) W 279 0 min 0 W/m 8,1 C 9,7 C 3,2 km/h (1 Bft)
19.10.2018 02:45 9,8 C 9,8 C 90 % 1028,5 hPa 0,0 l/m 2,9 km/h (1 Bft) W 279 0 min 0 W/m 8,2 C 9,8 C 4,8 km/h (1 Bft)
19.10.2018 02:40 9,9 C 9,9 C 90 % 1028,5 hPa 0,0 l/m 1,6 km/h (1 Bft) W 268 0 min 0 W/m 8,3 C 9,9 C 4,8 km/h (1 Bft)
19.10.2018 02:35 10,1 C 10,1 C 90 % 1028,5 hPa 0,0 l/m 1,2 km/h (1 Bft) S-SW 201 0 min 0 W/m 8,5 C 10,1 C 3,2 km/h (1 Bft)
19.10.2018 02:30 10,1 C 9,9 C 91 % 1028,6 hPa 0,0 l/m 1,9 km/h (1 Bft) S-SW 201 0 min 0 W/m 8,7 C 10,1 C 4,8 km/h (1 Bft)
19.10.2018 02:25 9,9 C 9,7 C 91 % 1028,6 hPa 0,0 l/m 2,1 km/h (1 Bft) SO 146 0 min 0 W/m 8,5 C 9,9 C 4,8 km/h (1 Bft)
19.10.2018 02:20 9,7 C 9,6 C 90 % 1028,7 hPa 0,0 l/m 2,3 km/h (1 Bft) O-SO 123 0 min 0 W/m 8,1 C 9,7 C 4,8 km/h (1 Bft)
19.10.2018 02:15 9,6 C 9,6 C 90 % 1028,6 hPa 0,0 l/m 2,1 km/h (1 Bft) S-SO 162 0 min 0 W/m 8,0 C 9,6 C 6,4 km/h (2 Bft)
19.10.2018 02:10 9,6 C 9,6 C 90 % 1028,6 hPa 0,0 l/m 2,4 km/h (1 Bft) S-SO 155 0 min 0 W/m 8,0 C 9,6 C 4,8 km/h (1 Bft)
19.10.2018 02:05 9,6 C 9,6 C 89 % 1028,6 hPa 0,0 l/m 1,4 km/h (1 Bft) SW 225 0 min 0 W/m 7,9 C 9,6 C 3,2 km/h (1 Bft)
19.10.2018 02:00 9,7 C 9,7 C 89 % 1028,6 hPa 0,0 l/m 2,8 km/h (1 Bft) SW 225 0 min 0 W/m 8,0 C 9,7 C 4,8 km/h (1 Bft)
19.10.2018 01:55 9,7 C 9,7 C 89 % 1028,6 hPa 0,0 l/m 2,5 km/h (1 Bft) SW 226 0 min 0 W/m 8,0 C 9,7 C 4,8 km/h (1 Bft)
19.10.2018 01:50 9,7 C 9,7 C 89 % 1028,6 hPa 0,0 l/m 2,5 km/h (1 Bft) SW 226 0 min 0 W/m 8,0 C 9,7 C 4,8 km/h (1 Bft)
19.10.2018 01:45 9,8 C 9,8 C 89 % 1028,7 hPa 0,0 l/m 2,5 km/h (1 Bft) W-SW 258 0 min 0 W/m 8,1 C 9,8 C 4,8 km/h (1 Bft)
19.10.2018 01:40 9,8 C 9,8 C 89 % 1028,7 hPa 0,0 l/m 0,6 km/h (0 Bft) W 261 0 min 0 W/m 8,1 C 9,8 C 3,2 km/h (1 Bft)
19.10.2018 01:35 9,9 C 9,9 C 89 % 1028,7 hPa 0,0 l/m 1,0 km/h (0 Bft) N 360 0 min 0 W/m 8,2 C 9,9 C 3,2 km/h (1 Bft)
19.10.2018 01:30 10,0 C 10,0 C 88 % 1028,6 hPa 0,0 l/m 1,1 km/h (1 Bft) N 360 0 min 0 W/m 8,1 C 10,0 C 3,2 km/h (1 Bft)
19.10.2018 01:25 10,1 C 10,1 C 88 % 1028,7 hPa 0,0 l/m 0,5 km/h (0 Bft) N 360 0 min 0 W/m 8,2 C 10,1 C 1,6 km/h (1 Bft)
19.10.2018 01:20 10,2 C 10,1 C 88 % 1028,6 hPa 0,0 l/m 0,9 km/h (0 Bft) N 355 0 min 0 W/m 8,3 C 10,2 C 3,2 km/h (1 Bft)
19.10.2018 01:15 10,2 C 10,2 C 88 % 1028,6 hPa 0,0 l/m 0,1 km/h (0 Bft) O-NO 63 0 min 0 W/m 8,3 C 10,2 C 1,6 km/h (1 Bft)
19.10.2018 01:10 10,3 C 10,3 C 88 % 1028,6 hPa 0,0 l/m 1,0 km/h (0 Bft) O-NO 63 0 min 0 W/m 8,4 C 10,3 C 3,2 km/h (1 Bft)
19.10.2018 01:05 10,4 C 10,4 C 88 % 1028,6 hPa 0,0 l/m 0,3 km/h (0 Bft) O-NO 63 0 min 0 W/m 8,5 C 10,4 C 1,6 km/h (1 Bft)
19.10.2018 01:00 10,4 C 10,4 C 87 % 1028,7 hPa 0,0 l/m 0,8 km/h (0 Bft) O-NO 63 0 min 0 W/m 8,3 C 10,4 C 3,2 km/h (1 Bft)
19.10.2018 00:55 10,5 C 10,5 C 87 % 1028,7 hPa 0,0 l/m 1,8 km/h (1 Bft) O-NO 63 0 min 0 W/m 8,4 C 10,5 C 3,2 km/h (1 Bft)
19.10.2018 00:50 10,6 C 10,6 C 87 % 1028,7 hPa 0,0 l/m 1,7 km/h (1 Bft) O-NO 63 0 min 0 W/m 8,5 C 10,6 C 3,2 km/h (1 Bft)
19.10.2018 00:45 10,8 C 10,8 C 87 % 1028,8 hPa 0,0 l/m 0,9 km/h (0 Bft) O-NO 64 0 min 0 W/m 8,7 C 10,8 C 3,2 km/h (1 Bft)
19.10.2018 00:40 10,9 C 10,9 C 86 % 1028,9 hPa 0,0 l/m 0,9 km/h (0 Bft) O-NO 63 0 min 0 W/m 8,7 C 10,9 C 3,2 km/h (1 Bft)
19.10.2018 00:35 11,0 C 11,0 C 86 % 1028,9 hPa 0,0 l/m 1,2 km/h (1 Bft) O-NO 63 0 min 0 W/m 8,7 C 11,0 C 3,2 km/h (1 Bft)
19.10.2018 00:30 11,1 C 11,1 C 86 % 1028,9 hPa 0,0 l/m 1,3 km/h (1 Bft) O-NO 68 0 min 0 W/m 8,8 C 11,1 C 4,8 km/h (1 Bft)
19.10.2018 00:25 11,3 C 11,3 C 86 % 1028,8 hPa 0,0 l/m 1,2 km/h (1 Bft) NO 42 0 min 0 W/m 9,0 C 11,3 C 3,2 km/h (1 Bft)
19.10.2018 00:20 11,4 C 11,4 C 86 % 1028,8 hPa 0,0 l/m 1,2 km/h (1 Bft) NO 42 0 min 0 W/m 9,1 C 11,4 C 3,2 km/h (1 Bft)
19.10.2018 00:15 11,5 C 11,5 C 86 % 1028,8 hPa 0,0 l/m 1,5 km/h (1 Bft) NO 42 0 min 0 W/m 9,2 C 11,5 C 3,2 km/h (1 Bft)
19.10.2018 00:10 11,6 C 11,6 C 85 % 1028,9 hPa 0,0 l/m 2,2 km/h (1 Bft) NO 42 0 min 0 W/m 9,2 C 11,6 C 3,2 km/h (1 Bft)
19.10.2018 00:05 11,7 C 11,7 C 85 % 1028,8 hPa 0,0 l/m 1,9 km/h (1 Bft) NO 42 0 min 0 W/m 9,3 C 11,7 C 3,2 km/h (1 Bft)
19.10.2018 00:00 11,9 C 11,9 C 85 % 1028,8 hPa 0,0 l/m 1,9 km/h (1 Bft) NO 42 0 min 0 W/m 9,5 C 11,9 C 3,2 km/h (1 Bft)
_ Min-Zeit 02:05 02:05 00:00 02:35 - 01:15 - - - - 02:05 02:05 01:05
Minimum _ 9,6 C 9,6 C 85 % 1028,5 hPa - 0,1 km/h (0 Bft) - - - - 7,9 C 9,6 C 1,6 km/h (1 Bft)
_ Max-Zeit 00:00 00:00 02:25 00:10 00:00 02:45 - - 00:00 00:00 00:00 00:00 02:15
Maximum _ 12,0 C 11,9 C 91 % 1028,9 hPa 0,0 l/m 2,9 km/h
W (1 Bft)
- - 0 min 0 W/m 9,5 C 11,9 C 6,4 km/h
S-SO (2 Bft)
Durchschnitt _ 10,4 C 10,3 C 88 % 1028,7 hPa #0,0 l/m 1,5 km/h (1 Bft) NO - #0 min. 0 W/m 8,5 C 10,4 C 3,7 km/h (1 Bft)